sensor_id;sensor_type;location;lat;lon;timestamp;pressure;altitude;pressure_sealevel;temperature;humidity
75221;BME280;63802;53.232;6.570;2023-07-29T00:02:00;100770.69;;;18.59;100.00
75221;BME280;63802;53.232;6.570;2023-07-29T00:04:26;100779.34;;;18.61;100.00
75221;BME280;63802;53.232;6.570;2023-07-29T00:06:51;100775.44;;;18.59;100.00
75221;BME280;63802;53.232;6.570;2023-07-29T00:09:17;100773.06;;;18.57;100.00
75221;BME280;63802;53.232;6.570;2023-07-29T00:11:43;100766.00;;;18.56;100.00
75221;BME280;63802;53.232;6.570;2023-07-29T00:14:08;100762.88;;;18.54;100.00
75221;BME280;63802;53.232;6.570;2023-07-29T00:16:33;100758.88;;;18.55;100.00
75221;BME280;63802;53.232;6.570;2023-07-29T00:18:59;100762.88;;;18.54;100.00
75221;BME280;63802;53.232;6.570;2023-07-29T00:21:25;100759.72;;;18.52;100.00
75221;BME280;63802;53.232;6.570;2023-07-29T00:23:51;100758.09;;;18.55;100.00
75221;BME280;63802;53.232;6.570;2023-07-29T00:26:16;100740.88;;;18.44;100.00
75221;BME280;63802;53.232;6.570;2023-07-29T00:28:42;100742.47;;;18.45;100.00
75221;BME280;63802;53.232;6.570;2023-07-29T00:31:08;100720.50;;;18.34;100.00
75221;BME280;63802;53.232;6.570;2023-07-29T00:33:33;100745.22;;;18.45;100.00
75221;BME280;63802;53.232;6.570;2023-07-29T00:35:59;100742.47;;;18.45;100.00
75221;BME280;63802;53.232;6.570;2023-07-29T00:38:27;100747.59;;;18.46;100.00
75221;BME280;63802;53.232;6.570;2023-07-29T00:40:52;100740.88;;;18.47;100.00
75221;BME280;63802;53.232;6.570;2023-07-29T00:43:18;100724.41;;;18.37;100.00
75221;BME280;63802;53.232;6.570;2023-07-29T00:45:44;100730.63;;;18.44;100.00
75221;BME280;63802;53.232;6.570;2023-07-29T00:48:10;100729.81;;;18.44;100.00
75221;BME280;63802;53.232;6.570;2023-07-29T00:50:36;100732.59;;;18.44;100.00
75221;BME280;63802;53.232;6.570;2023-07-29T00:53:02;100727.50;;;18.42;100.00
75221;BME280;63802;53.232;6.570;2023-07-29T00:55:28;100729.81;;;18.44;100.00
75221;BME280;63802;53.232;6.570;2023-07-29T00:57:54;100712.63;;;18.33;100.00
75221;BME280;63802;53.232;6.570;2023-07-29T01:00:21;100734.22;;;18.41;100.00
75221;BME280;63802;53.232;6.570;2023-07-29T01:02:47;100724.41;;;18.37;100.00
75221;BME280;63802;53.232;6.570;2023-07-29T01:05:14;100729.91;;;18.40;100.00
75221;BME280;63802;53.232;6.570;2023-07-29T01:07:55;100737.03;;;18.38;100.00
75221;BME280;63802;53.232;6.570;2023-07-29T01:10:40;100730.84;;;18.30;100.00
75221;BME280;63802;53.232;6.570;2023-07-29T01:13:35;100725.31;;;18.30;100.00
75221;BME280;63802;53.232;6.570;2023-07-29T01:16:13;100724.56;;;18.26;100.00
75221;BME280;63802;53.232;6.570;2023-07-29T01:18:42;100730.50;;;18.25;100.00
75221;BME280;63802;53.232;6.570;2023-07-29T01:21:09;100724.66;;;18.19;100.00
75221;BME280;63802;53.232;6.570;2023-07-29T01:23:36;100709.91;;;18.02;100.00
75221;BME280;63802;53.232;6.570;2023-07-29T01:26:02;100728.78;;;18.07;100.00
75221;BME280;63802;53.232;6.570;2023-07-29T01:28:29;100712.47;;;17.90;100.00
75221;BME280;63802;53.232;6.570;2023-07-29T01:33:57;100722.19;;;17.98;100.00
75221;BME280;63802;53.232;6.570;2023-07-29T01:36:27;100710.78;;;17.96;100.00
75221;BME280;63802;53.232;6.570;2023-07-29T01:38:55;100708.16;;;17.85;100.00
75221;BME280;63802;53.232;6.570;2023-07-29T01:41:22;100710.63;;;17.80;100.00
75221;BME280;63802;53.232;6.570;2023-07-29T01:43:49;100703.97;;;17.74;100.00
75221;BME280;63802;53.232;6.570;2023-07-29T01:46:15;100708.41;;;17.68;100.00
75221;BME280;63802;53.232;6.570;2023-07-29T01:48:41;100708.88;;;17.63;100.00
75221;BME280;63802;53.232;6.570;2023-07-29T01:51:07;100706.97;;;17.56;100.00
75221;BME280;63802;53.232;6.570;2023-07-29T01:53:33;100714.53;;;17.49;100.00
75221;BME280;63802;53.232;6.570;2023-07-29T01:55:59;100711.41;;;17.47;100.00
75221;BME280;63802;53.232;6.570;2023-07-29T01:58:24;100720.50;;;17.43;100.00
75221;BME280;63802;53.232;6.570;2023-07-29T02:00:50;100718.53;;;17.40;100.00
75221;BME280;63802;53.232;6.570;2023-07-29T02:03:16;100722.50;;;17.39;100.00
75221;BME280;63802;53.232;6.570;2023-07-29T02:05:41;100707.59;;;17.33;100.00
75221;BME280;63802;53.232;6.570;2023-07-29T02:08:09;100713.91;;;17.34;100.00
75221;BME280;63802;53.232;6.570;2023-07-29T02:10:35;100712.41;;;17.26;100.00
75221;BME280;63802;53.232;6.570;2023-07-29T02:13:01;100710.44;;;17.26;100.00
75221;BME280;63802;53.232;6.570;2023-07-29T02:15:27;100691.28;;;17.12;100.00
75221;BME280;63802;53.232;6.570;2023-07-29T02:17:53;100678.75;;;17.04;100.00
75221;BME280;63802;53.232;6.570;2023-07-29T02:20:18;100701.50;;;17.12;100.00
75221;BME280;63802;53.232;6.570;2023-07-29T02:22:44;100698.38;;;17.10;100.00
75221;BME280;63802;53.232;6.570;2023-07-29T02:25:09;100699.19;;;17.07;100.00
75221;BME280;63802;53.232;6.570;2023-07-29T02:27:35;100700.00;;;17.04;100.00
75221;BME280;63802;53.232;6.570;2023-07-29T02:30:01;100703.19;;;17.02;100.00
75221;BME280;63802;53.232;6.570;2023-07-29T02:32:27;100695.78;;;16.96;100.00
75221;BME280;63802;53.232;6.570;2023-07-29T02:34:52;100691.41;;;16.98;100.00
75221;BME280;63802;53.232;6.570;2023-07-29T02:37:21;100704.00;;;16.99;100.00
75221;BME280;63802;53.232;6.570;2023-07-29T02:39:46;100698.13;;;16.97;100.00
75221;BME280;63802;53.232;6.570;2023-07-29T02:42:12;100679.75;;;16.84;100.00
75221;BME280;63802;53.232;6.570;2023-07-29T02:44:40;100667.59;;;16.77;100.00
75221;BME280;63802;53.232;6.570;2023-07-29T02:47:05;100704.06;;;16.92;100.00
75221;BME280;63802;53.232;6.570;2023-07-29T02:49:31;100689.19;;;16.83;100.00
75221;BME280;63802;53.232;6.570;2023-07-29T02:51:56;100688.38;;;16.86;100.00
75221;BME280;63802;53.232;6.570;2023-07-29T02:54:22;100679.47;;;16.71;100.00
75221;BME280;63802;53.232;6.570;2023-07-29T02:56:47;100696.31;;;16.80;100.00
75221;BME280;63802;53.232;6.570;2023-07-29T02:59:13;100690.91;;;16.69;100.00
75221;BME280;63802;53.232;6.570;2023-07-29T03:01:38;100690.84;;;16.73;100.00
75221;BME280;63802;53.232;6.570;2023-07-29T03:04:04;100695.56;;;16.76;100.00
75221;BME280;63802;53.232;6.570;2023-07-29T03:06:29;100693.59;;;16.73;100.00
75221;BME280;63802;53.232;6.570;2023-07-29T03:08:54;100674.38;;;16.66;100.00
75221;BME280;63802;53.232;6.570;2023-07-29T03:11:20;100690.84;;;16.73;100.00
75221;BME280;63802;53.232;6.570;2023-07-29T03:13:46;100677.13;;;16.66;100.00
75221;BME280;63802;53.232;6.570;2023-07-29T03:16:16;100679.53;;;16.64;100.00
75221;BME280;63802;53.232;6.570;2023-07-29T03:18:42;100688.53;;;16.68;100.00
75221;BME280;63802;53.232;6.570;2023-07-29T03:21:09;100669.38;;;16.54;100.00
75221;BME280;63802;53.232;6.570;2023-07-29T03:23:36;100687.44;;;16.58;100.00
75221;BME280;63802;53.232;6.570;2023-07-29T03:26:03;100694.91;;;16.61;100.00
75221;BME280;63802;53.232;6.570;2023-07-29T03:28:40;100693.31;;;16.60;100.00
75221;BME280;63802;53.232;6.570;2023-07-29T03:31:06;100678.00;;;16.56;100.00
75221;BME280;63802;53.232;6.570;2023-07-29T03:33:32;100670.56;;;16.53;100.00
75221;BME280;63802;53.232;6.570;2023-07-29T03:35:58;100674.88;;;16.54;100.00
75221;BME280;63802;53.232;6.570;2023-07-29T03:38:23;100667.38;;;16.51;100.00
75221;BME280;63802;53.232;6.570;2023-07-29T03:40:49;100676.50;;;16.48;100.00
75221;BME280;63802;53.232;6.570;2023-07-29T03:43:14;100666.72;;;16.40;100.00
75221;BME280;63802;53.232;6.570;2023-07-29T03:45:40;100671.41;;;16.43;100.00
75221;BME280;63802;53.232;6.570;2023-07-29T03:48:06;100673.38;;;16.39;100.00
75221;BME280;63802;53.232;6.570;2023-07-29T03:50:34;100677.41;;;16.31;100.00
75221;BME280;63802;53.232;6.570;2023-07-29T03:53:04;100670.72;;;16.28;100.00
75221;BME280;63802;53.232;6.570;2023-07-29T03:55:30;100647.22;;;16.17;100.00
75221;BME280;63802;53.232;6.570;2023-07-29T03:57:56;100669.94;;;16.31;100.00
75221;BME280;63802;53.232;6.570;2023-07-29T04:00:22;100659.72;;;16.25;100.00
75221;BME280;63802;53.232;6.570;2023-07-29T04:02:48;100648.00;;;16.17;100.00
75221;BME280;63802;53.232;6.570;2023-07-29T04:05:13;100664.88;;;16.23;100.00
75221;BME280;63802;53.232;6.570;2023-07-29T04:07:39;100654.28;;;16.18;100.00
75221;BME280;63802;53.232;6.570;2023-07-29T04:10:05;100665.66;;;16.23;100.00
75221;BME280;63802;53.232;6.570;2023-07-29T04:12:33;100659.72;;;16.25;100.00
75221;BME280;63802;53.232;6.570;2023-07-29T04:14:59;100650.34;;;16.15;100.00
75221;BME280;63802;53.232;6.570;2023-07-29T04:17:24;100658.94;;;16.28;100.00
75221;BME280;63802;53.232;6.570;2023-07-29T04:19:50;100662.88;;;16.27;100.00
75221;BME280;63802;53.232;6.570;2023-07-29T04:22:16;100662.84;;;16.34;100.00
75221;BME280;63802;53.232;6.570;2023-07-29T04:24:42;100654.94;;;16.36;100.00
75221;BME280;63802;53.232;6.570;2023-07-29T04:27:08;100652.56;;;16.38;100.00
75221;BME280;63802;53.232;6.570;2023-07-29T04:29:33;100659.59;;;16.46;100.00
75221;BME280;63802;53.232;6.570;2023-07-29T04:32:01;100672.94;;;16.47;100.00
75221;BME280;63802;53.232;6.570;2023-07-29T04:34:27;100668.59;;;16.50;100.00
75221;BME280;63802;53.232;6.570;2023-07-29T04:36:52;100664.63;;;16.51;100.00
75221;BME280;63802;53.232;6.570;2023-07-29T04:39:17;100645.41;;;16.44;100.00
75221;BME280;63802;53.232;6.570;2023-07-29T04:41:43;100665.81;;;16.57;100.00
75221;BME280;63802;53.232;6.570;2023-07-29T04:44:09;100633.63;;;16.43;100.00
75221;BME280;63802;53.232;6.570;2023-07-29T04:46:35;100654.31;;;16.65;100.00
75221;BME280;63802;53.232;6.570;2023-07-29T04:49:01;100647.63;;;16.66;100.00
75221;BME280;63802;53.232;6.570;2023-07-29T04:51:28;100640.09;;;16.70;100.00
75221;BME280;63802;53.232;6.570;2023-07-29T04:53:53;100653.34;;;16.83;100.00
75221;BME280;63802;53.232;6.570;2023-07-29T04:56:19;100631.75;;;16.77;100.00
75221;BME280;63802;53.232;6.570;2023-07-29T04:58:44;100632.41;;;16.92;100.00
75221;BME280;63802;53.232;6.570;2023-07-29T05:01:10;100647.22;;;17.05;100.00
75221;BME280;63802;53.232;6.570;2023-07-29T05:03:36;100626.03;;;16.99;100.00
75221;BME280;63802;53.232;6.570;2023-07-29T05:06:02;100651.84;;;17.15;100.00
75221;BME280;63802;53.232;6.570;2023-07-29T05:08:28;100651.06;;;17.15;100.00
75221;BME280;63802;53.232;6.570;2023-07-29T05:10:54;100645.56;;;17.15;100.00
75221;BME280;63802;53.232;6.570;2023-07-29T05:13:20;100640.84;;;17.12;100.00
75221;BME280;63802;53.232;6.570;2023-07-29T05:15:47;100629.88;;;17.08;100.00
75221;BME280;63802;53.232;6.570;2023-07-29T05:18:13;100625.19;;;17.05;100.00
75221;BME280;63802;53.232;6.570;2023-07-29T05:20:39;100614.22;;;16.98;100.00
75221;BME280;63802;53.232;6.570;2023-07-29T05:23:04;100639.25;;;17.14;100.00
75221;BME280;63802;53.232;6.570;2023-07-29T05:25:29;100619.66;;;17.05;100.00
75221;BME280;63802;53.232;6.570;2023-07-29T05:27:55;100635.97;;;17.23;100.00
75221;BME280;63802;53.232;6.570;2023-07-29T05:30:20;100614.78;;;17.16;100.00
75221;BME280;63802;53.232;6.570;2023-07-29T05:32:46;100638.25;;;17.31;100.00
75221;BME280;63802;53.232;6.570;2023-07-29T05:35:14;100635.88;;;17.33;100.00
75221;BME280;63802;53.232;6.570;2023-07-29T05:37:40;100616.22;;;17.28;100.00
75221;BME280;63802;53.232;6.570;2023-07-29T05:40:06;100637.38;;;17.38;100.00
75221;BME280;63802;53.232;6.570;2023-07-29T05:42:32;100642.91;;;17.38;100.00
75221;BME280;63802;53.232;6.570;2023-07-29T05:44:58;100648.38;;;17.41;100.00
75221;BME280;63802;53.232;6.570;2023-07-29T05:47:24;100651.91;;;17.42;100.00
75221;BME280;63802;53.232;6.570;2023-07-29T05:49:49;100637.81;;;17.36;100.00
75221;BME280;63802;53.232;6.570;2023-07-29T05:52:15;100652.59;;;17.50;100.00
75221;BME280;63802;53.232;6.570;2023-07-29T05:54:40;100639.75;;;17.39;100.00
75221;BME280;63802;53.232;6.570;2023-07-29T05:57:09;100669.16;;;17.50;100.00
75221;BME280;63802;53.232;6.570;2023-07-29T05:59:34;100662.44;;;17.54;100.00
75221;BME280;63802;53.232;6.570;2023-07-29T06:02:00;100664.78;;;17.56;100.00
75221;BME280;63802;53.232;6.570;2023-07-29T06:04:25;100657.69;;;17.55;100.00
75221;BME280;63802;53.232;6.570;2023-07-29T06:06:50;100671.88;;;17.57;100.00
75221;BME280;63802;53.232;6.570;2023-07-29T06:09:16;100678.50;;;17.63;100.00
75221;BME280;63802;53.232;6.570;2023-07-29T06:11:41;100670.16;;;17.66;100.00
75221;BME280;63802;53.232;6.570;2023-07-29T06:14:07;100675.28;;;17.68;100.00
75221;BME280;63802;53.232;6.570;2023-07-29T06:16:32;100674.06;;;17.69;100.00
75221;BME280;63802;53.232;6.570;2023-07-29T06:18:58;100664.19;;;17.71;100.00
75221;BME280;63802;53.232;6.570;2023-07-29T06:21:23;100644.94;;;17.68;100.00
75221;BME280;63802;53.232;6.570;2023-07-29T06:23:49;100675.91;;;17.79;100.00
75221;BME280;63802;53.232;6.570;2023-07-29T06:26:14;100670.81;;;17.77;100.00
75221;BME280;63802;53.232;6.570;2023-07-29T06:28:40;100661.38;;;17.75;100.00
75221;BME280;63802;53.232;6.570;2023-07-29T06:31:05;100674.16;;;17.92;100.00
75221;BME280;63802;53.232;6.570;2023-07-29T06:33:30;100660.97;;;18.03;100.00
75221;BME280;63802;53.232;6.570;2023-07-29T06:35:59;100663.59;;;18.40;100.00
75221;BME280;63802;53.232;6.570;2023-07-29T06:38:24;100656.97;;;18.57;100.00
75221;BME280;63802;53.232;6.570;2023-07-29T06:40:50;100661.31;;;18.82;100.00
75221;BME280;63802;53.232;6.570;2023-07-29T06:43:16;100650.09;;;19.12;100.00
75221;BME280;63802;53.232;6.570;2023-07-29T06:45:42;100646.44;;;19.15;100.00
75221;BME280;63802;53.232;6.570;2023-07-29T06:48:07;100642.34;;;19.23;100.00
75221;BME280;63802;53.232;6.570;2023-07-29T06:50:33;100639.94;;;19.25;100.00
75221;BME280;63802;53.232;6.570;2023-07-29T06:52:59;100614.78;;;19.19;100.00
75221;BME280;63802;53.232;6.570;2023-07-29T06:55:24;100643.38;;;19.52;100.00
75221;BME280;63802;53.232;6.570;2023-07-29T06:57:49;100641.78;;;19.51;100.00
75221;BME280;63802;53.232;6.570;2023-07-29T07:00:15;100648.41;;;19.57;100.00
75221;BME280;63802;53.232;6.570;2023-07-29T07:02:40;100646.47;;;19.54;100.00
75221;BME280;63802;53.232;6.570;2023-07-29T07:05:06;100644.63;;;19.28;100.00
75221;BME280;63802;53.232;6.570;2023-07-29T07:07:32;100653.94;;;19.37;100.00
75221;BME280;63802;53.232;6.570;2023-07-29T07:09:57;100652.88;;;19.51;100.00
75221;BME280;63802;53.232;6.570;2023-07-29T07:12:26;100643.91;;;19.63;100.00
75221;BME280;63802;53.232;6.570;2023-07-29T07:14:51;100655.75;;;19.99;100.00
75221;BME280;63802;53.232;6.570;2023-07-29T07:17:17;100636.09;;;19.94;100.00
75221;BME280;63802;53.232;6.570;2023-07-29T07:19:43;100648.75;;;19.95;100.00
75221;BME280;63802;53.232;6.570;2023-07-29T07:22:08;100648.63;;;19.82;100.00
75221;BME280;63802;53.232;6.570;2023-07-29T07:24:34;100635.44;;;19.70;100.00
75221;BME280;63802;53.232;6.570;2023-07-29T07:26:59;100631.59;;;19.48;100.00
75221;BME280;63802;53.232;6.570;2023-07-29T07:29:25;100657.75;;;19.63;100.00
75221;BME280;63802;53.232;6.570;2023-07-29T07:31:54;100651.81;;;19.65;100.00
75221;BME280;63802;53.232;6.570;2023-07-29T07:34:22;100658.16;;;19.81;100.00
75221;BME280;63802;53.232;6.570;2023-07-29T07:36:48;100651.63;;;20.08;100.00
75221;BME280;63802;53.232;6.570;2023-07-29T07:39:14;100659.34;;;20.16;100.00
75221;BME280;63802;53.232;6.570;2023-07-29T07:41:40;100648.88;;;20.24;100.00
75221;BME280;63802;53.232;6.570;2023-07-29T07:44:06;100652.00;;;20.26;100.00
75221;BME280;63802;53.232;6.570;2023-07-29T07:46:32;100644.22;;;20.37;100.00
75221;BME280;63802;53.232;6.570;2023-07-29T07:48:57;100654.22;;;20.79;100.00
75221;BME280;63802;53.232;6.570;2023-07-29T07:51:22;100634.31;;;20.68;100.00
75221;BME280;63802;53.232;6.570;2023-07-29T07:53:48;100653.75;;;20.68;100.00
75221;BME280;63802;53.232;6.570;2023-07-29T07:56:14;100656.00;;;20.25;100.00
75221;BME280;63802;53.232;6.570;2023-07-29T07:58:40;100642.31;;;20.50;100.00
75221;BME280;63802;53.232;6.570;2023-07-29T08:01:06;100646.00;;;20.76;100.00
75221;BME280;63802;53.232;6.570;2023-07-29T08:03:33;100657.66;;;21.15;100.00
75221;BME280;63802;53.232;6.570;2023-07-29T08:05:59;100648.63;;;21.53;100.00
75221;BME280;63802;53.232;6.570;2023-07-29T08:08:25;100644.78;;;21.63;100.00
75221;BME280;63802;53.232;6.570;2023-07-29T08:10:53;100641.88;;;21.54;100.00
75221;BME280;63802;53.232;6.570;2023-07-29T08:13:20;100648.41;;;21.60;100.00
75221;BME280;63802;53.232;6.570;2023-07-29T08:15:48;100653.69;;;21.83;100.00
75221;BME280;63802;53.232;6.570;2023-07-29T08:18:14;100642.84;;;22.14;100.00
75221;BME280;63802;53.232;6.570;2023-07-29T08:20:39;100652.16;;;22.20;100.00
75221;BME280;63802;53.232;6.570;2023-07-29T08:23:05;100648.28;;;22.05;100.00
75221;BME280;63802;53.232;6.570;2023-07-29T08:25:30;100648.25;;;22.42;100.00
75221;BME280;63802;53.232;6.570;2023-07-29T08:27:56;100645.16;;;23.09;100.00
75221;BME280;63802;53.232;6.570;2023-07-29T08:30:21;100633.00;;;23.37;100.00
75221;BME280;63802;53.232;6.570;2023-07-29T08:32:47;100632.22;;;22.93;100.00
75221;BME280;63802;53.232;6.570;2023-07-29T08:35:13;100617.44;;;22.84;100.00
75221;BME280;63802;53.232;6.570;2023-07-29T08:37:38;100649.44;;;23.01;100.00
75221;BME280;63802;53.232;6.570;2023-07-29T08:40:05;100649.28;;;22.83;100.00
75221;BME280;63802;53.232;6.570;2023-07-29T08:42:31;100648.47;;;22.48;100.00
75221;BME280;63802;53.232;6.570;2023-07-29T08:45:01;100644.28;;;22.18;100.00
75221;BME280;63802;53.232;6.570;2023-07-29T08:47:30;100650.13;;;21.82;100.00
75221;BME280;63802;53.232;6.570;2023-07-29T08:49:56;100654.84;;;21.85;100.00
75221;BME280;63802;53.232;6.570;2023-07-29T08:52:22;100655.66;;;21.70;100.00
75221;BME280;63802;53.232;6.570;2023-07-29T08:54:48;100651.00;;;21.67;100.00
75221;BME280;63802;53.232;6.570;2023-07-29T08:57:14;100654.28;;;22.03;100.00
75221;BME280;63802;53.232;6.570;2023-07-29T08:59:40;100653.72;;;22.33;100.00
75221;BME280;63802;53.232;6.570;2023-07-29T09:02:06;100643.63;;;22.74;100.00
75221;BME280;63802;53.232;6.570;2023-07-29T09:04:32;100645.16;;;23.09;100.00
75221;BME280;63802;53.232;6.570;2023-07-29T09:06:58;100635.22;;;23.42;100.00
75221;BME280;63802;53.232;6.570;2023-07-29T09:09:25;100628.72;;;23.67;100.00
75221;BME280;63802;53.232;6.570;2023-07-29T09:11:50;100630.13;;;23.71;100.00
75221;BME280;63802;53.232;6.570;2023-07-29T09:14:16;100628.09;;;23.41;100.00
75221;BME280;63802;53.232;6.570;2023-07-29T09:16:42;100640.06;;;23.29;100.00
75221;BME280;63802;53.232;6.570;2023-07-29T09:19:08;100647.50;;;22.89;100.00
75221;BME280;63802;53.232;6.570;2023-07-29T09:21:38;100640.47;;;22.62;100.00
75221;BME280;63802;53.232;6.570;2023-07-29T09:24:04;100642.31;;;22.65;100.00
75221;BME280;63802;53.232;6.570;2023-07-29T09:26:30;100648.72;;;22.88;100.00
75221;BME280;63802;53.232;6.570;2023-07-29T09:28:59;100656.41;;;22.84;100.00
75221;BME280;63802;53.232;6.570;2023-07-29T09:31:27;100658.47;;;22.45;100.00
75221;BME280;63802;53.232;6.570;2023-07-29T09:33:58;100642.78;;;22.64;100.00
75221;BME280;63802;53.232;6.570;2023-07-29T09:36:24;100656.66;;;22.77;100.00
75221;BME280;63802;53.232;6.570;2023-07-29T09:38:54;100650.41;;;23.07;100.00
75221;BME280;63802;53.232;6.570;2023-07-29T09:41:28;100657.69;;;22.92;100.00
75221;BME280;63802;53.232;6.570;2023-07-29T09:44:03;100647.84;;;22.78;100.00
75221;BME280;63802;53.232;6.570;2023-07-29T09:46:37;100651.81;;;22.30;100.00
75221;BME280;63802;53.232;6.570;2023-07-29T09:49:04;100652.06;;;22.23;100.00
75221;BME280;63802;53.232;6.570;2023-07-29T09:51:31;100659.69;;;22.57;100.00
75221;BME280;63802;53.232;6.570;2023-07-29T09:53:57;100649.69;;;22.94;100.00
75221;BME280;63802;53.232;6.570;2023-07-29T09:56:26;100642.59;;;23.14;100.00
75221;BME280;63802;53.232;6.570;2023-07-29T09:58:52;100641.03;;;23.13;100.00
75221;BME280;63802;53.232;6.570;2023-07-29T10:01:20;100621.88;;;22.94;100.00
75221;BME280;63802;53.232;6.570;2023-07-29T10:03:47;100642.69;;;22.89;100.00
75221;BME280;63802;53.232;6.570;2023-07-29T10:06:15;100629.91;;;23.35;100.00
75221;BME280;63802;53.232;6.570;2023-07-29T10:08:42;100636.78;;;23.43;100.00
75221;BME280;63802;53.232;6.570;2023-07-29T10:11:09;100636.66;;;23.47;100.00
75221;BME280;63802;53.232;6.570;2023-07-29T10:13:36;100624.38;;;23.66;100.00
75221;BME280;63802;53.232;6.570;2023-07-29T10:16:02;100631.69;;;23.72;100.00
75221;BME280;63802;53.232;6.570;2023-07-29T10:18:32;100630.13;;;23.71;100.00
75221;BME280;63802;53.232;6.570;2023-07-29T10:21:01;100629.06;;;23.78;100.00
75221;BME280;63802;53.232;6.570;2023-07-29T10:23:30;100631.00;;;23.59;100.00
75221;BME280;63802;53.232;6.570;2023-07-29T10:26:05;100635.59;;;24.15;100.00
75221;BME280;63802;53.232;6.570;2023-07-29T10:28:31;100610.13;;;23.94;100.00
75221;BME280;63802;53.232;6.570;2023-07-29T10:30:58;100608.25;;;24.49;100.00
75221;BME280;63802;53.232;6.570;2023-07-29T10:33:24;100629.31;;;24.32;100.00
75221;BME280;63802;53.232;6.570;2023-07-29T10:35:50;100631.31;;;24.32;100.00
75221;BME280;63802;53.232;6.570;2023-07-29T10:38:16;100633.19;;;24.35;100.00
75221;BME280;63802;53.232;6.570;2023-07-29T10:40:54;100630.75;;;25.27;100.00
75221;BME280;63802;53.232;6.570;2023-07-29T10:43:32;100626.97;;;26.41;100.00
75221;BME280;63802;53.232;6.570;2023-07-29T10:46:14;100612.50;;;26.43;100.00
75221;BME280;63802;53.232;6.570;2023-07-29T10:48:54;100615.00;;;26.17;100.00
75221;BME280;63802;53.232;6.570;2023-07-29T10:51:37;100609.03;;;26.48;100.00
75221;BME280;63802;53.232;6.570;2023-07-29T10:54:13;100605.94;;;26.46;100.00
75221;BME280;63802;53.232;6.570;2023-07-29T10:57:02;100599.56;;;25.89;100.00
75221;BME280;63802;53.232;6.570;2023-07-29T10:59:32;100605.25;;;25.62;100.00
75221;BME280;63802;53.232;6.570;2023-07-29T11:02:01;100598.69;;;24.78;100.00
75221;BME280;63802;53.232;6.570;2023-07-29T11:04:29;100619.25;;;24.53;100.00
75221;BME280;63802;53.232;6.570;2023-07-29T11:08:01;100608.41;;;24.46;100.00
75221;BME280;63802;53.232;6.570;2023-07-29T11:10:07;100615.84;;;24.40;100.00
75221;BME280;63802;53.232;6.570;2023-07-29T11:20:09;100654.59;;;22.18;100.00
75221;BME280;63802;53.232;6.570;2023-07-29T11:22:35;100681.28;;;21.49;100.00
75221;BME280;63802;53.232;6.570;2023-07-29T11:25:01;100690.72;;;20.61;100.00
75221;BME280;63802;53.232;6.570;2023-07-29T11:27:27;100692.22;;;20.34;100.00
75221;BME280;63802;53.232;6.570;2023-07-29T11:30:00;100703.97;;;20.38;100.00
75221;BME280;63802;53.232;6.570;2023-07-29T11:32:26;100696.34;;;20.90;100.00
75221;BME280;63802;53.232;6.570;2023-07-29T11:34:52;100692.03;;;21.34;100.00
75221;BME280;63802;53.232;6.570;2023-07-29T11:37:17;100703.78;;;21.79;100.00
75221;BME280;63802;53.232;6.570;2023-07-29T11:39:46;100688.66;;;21.68;100.00
75221;BME280;63802;53.232;6.570;2023-07-29T11:42:13;100691.63;;;22.27;100.00
75221;BME280;63802;53.232;6.570;2023-07-29T11:44:39;100692.28;;;22.56;100.00
75221;BME280;63802;53.232;6.570;2023-07-29T11:47:09;100678.19;;;22.98;100.00
75221;BME280;63802;53.232;6.570;2023-07-29T11:49:35;100681.63;;;23.36;100.00
75221;BME280;63802;53.232;6.570;2023-07-29T11:52:07;100665.06;;;23.20;100.00
75221;BME280;63802;53.232;6.570;2023-07-29T11:54:32;100670.91;;;23.13;100.00
75221;BME280;63802;53.232;6.570;2023-07-29T11:57:01;100667.13;;;22.60;100.00
75221;BME280;63802;53.232;6.570;2023-07-29T11:59:28;100678.28;;;22.22;100.00
75221;BME280;63802;53.232;6.570;2023-07-29T12:01:54;100680.75;;;21.95;100.00
75221;BME280;63802;53.232;6.570;2023-07-29T12:04:20;100685.75;;;21.87;100.00
75221;BME280;63802;53.232;6.570;2023-07-29T12:06:46;100681.44;;;22.24;100.00
75221;BME280;63802;53.232;6.570;2023-07-29T12:09:12;100678.50;;;22.40;100.00
75221;BME280;63802;53.232;6.570;2023-07-29T12:11:38;100687.19;;;22.42;100.00
75221;BME280;63802;53.232;6.570;2023-07-29T12:14:07;100682.06;;;22.03;100.00
75221;BME280;63802;53.232;6.570;2023-07-29T12:16:40;100675.81;;;21.74;100.00
75221;BME280;63802;53.232;6.570;2023-07-29T12:19:05;100669.63;;;21.95;100.00
75221;BME280;63802;53.232;6.570;2023-07-29T12:21:31;100673.63;;;21.94;100.00
75221;BME280;63802;53.232;6.570;2023-07-29T12:23:56;100669.81;;;22.63;100.00
75221;BME280;63802;53.232;6.570;2023-07-29T12:26:27;100675.63;;;23.25;100.00
75221;BME280;63802;53.232;6.570;2023-07-29T12:28:54;100674.75;;;22.94;100.00
75221;BME280;63802;53.232;6.570;2023-07-29T12:31:20;100685.19;;;23.02;100.00
75221;BME280;63802;53.232;6.570;2023-07-29T12:33:45;100684.72;;;23.04;100.00
75221;BME280;63802;53.232;6.570;2023-07-29T12:36:11;100674.78;;;23.15;100.00
75221;BME280;63802;53.232;6.570;2023-07-29T12:38:36;100686.72;;;22.69;100.00
75221;BME280;63802;53.232;6.570;2023-07-29T12:41:02;100696.97;;;22.34;100.00
75221;BME280;63802;53.232;6.570;2023-07-29T12:43:27;100697.75;;;22.47;100.00
75221;BME280;63802;53.232;6.570;2023-07-29T12:45:53;100689.75;;;22.62;100.00
75221;BME280;63802;53.232;6.570;2023-07-29T12:48:19;100690.94;;;22.48;100.00
75221;BME280;63802;53.232;6.570;2023-07-29T12:50:45;100689.16;;;22.54;100.00